createdAt,value
2019-01-04T00:00:36.606Z,25.47
2019-01-04T00:03:05.470Z,36.77
2019-01-04T00:05:34.417Z,28.73
2019-01-04T00:08:03.476Z,33.23
2019-01-04T00:10:32.341Z,31.30
2019-01-04T00:13:01.204Z,28.07
2019-01-04T00:15:30.135Z,22.53
2019-01-04T00:17:58.998Z,24.57
2019-01-04T00:20:27.858Z,29.70
2019-01-04T00:22:56.723Z,23.43
2019-01-04T00:25:25.570Z,28.73
2019-01-04T00:27:54.528Z,28.13
2019-01-04T00:30:23.382Z,26.83
2019-01-04T00:32:52.173Z,23.50
2019-01-04T00:35:21.024Z,19.77
2019-01-04T00:37:49.955Z,29.30
2019-01-04T00:40:19.132Z,27.97
2019-01-04T00:42:48.140Z,25.43
2019-01-04T00:45:17.026Z,29.83
2019-01-04T00:47:46.178Z,21.77
2019-01-04T00:50:15.168Z,27.03
2019-01-04T00:52:44.133Z,22.17
2019-01-04T00:55:52.432Z,22.37
2019-01-04T00:58:54.678Z,21.37
2019-01-04T01:02:12.745Z,27.57
2019-01-04T01:05:40.930Z,20.60
2019-01-04T01:08:47.473Z,25.17
2019-01-04T01:11:59.185Z,22.17
2019-01-04T01:15:03.082Z,23.50
2019-01-04T01:18:08.129Z,20.23
2019-01-04T01:21:08.279Z,24.63
2019-01-04T01:24:28.361Z,24.07
2019-01-04T01:27:42.252Z,24.40
2019-01-04T01:30:58.376Z,19.50
2019-01-04T01:33:57.436Z,23.83
2019-01-04T01:36:55.337Z,23.57
2019-01-04T01:39:55.145Z,24.13
2019-01-04T01:42:37.890Z,21.63
2019-01-04T01:49:14.470Z,27.53
2019-01-04T01:52:09.191Z,22.60
2019-01-04T01:54:38.030Z,27.43
2019-01-04T01:57:06.861Z,22.90
2019-01-04T01:59:36.089Z,22.57
2019-01-04T02:02:04.995Z,23.83
2019-01-04T02:04:33.902Z,23.77
2019-01-04T02:07:02.812Z,20.10
2019-01-04T02:09:31.754Z,26.70
2019-01-04T02:12:00.652Z,23.57
2019-01-04T02:14:29.487Z,25.53
2019-01-04T02:16:58.304Z,23.87
2019-01-04T02:19:27.204Z,20.37
2019-01-04T02:21:56.036Z,28.40
2019-01-04T02:24:24.899Z,25.43
2019-01-04T02:26:53.782Z,20.23
2019-01-04T02:29:22.707Z,23.30
2019-01-04T02:31:51.657Z,24.57
2019-01-04T02:34:20.940Z,20.03
2019-01-04T02:36:49.905Z,18.23
2019-01-04T02:39:18.748Z,19.33
2019-01-04T02:41:47.568Z,21.90
2019-01-04T02:44:16.425Z,21.83
2019-01-04T02:46:45.320Z,19.67
2019-01-04T02:49:14.140Z,18.27
2019-01-04T02:51:42.971Z,27.43
2019-01-04T02:54:12.046Z,24.63
2019-01-04T02:56:41.199Z,18.17
2019-01-04T02:59:10.034Z,23.93
2019-01-04T03:01:38.966Z,25.20
2019-01-04T03:04:07.791Z,22.33
2019-01-04T03:06:36.724Z,28.70
2019-01-04T03:09:06.763Z,27.70
2019-01-04T03:11:35.681Z,32.40
2019-01-04T03:14:04.562Z,23.07
2019-01-04T03:16:33.420Z,25.43
2019-01-04T03:19:02.461Z,36.53
2019-01-04T03:21:31.437Z,30.33
2019-01-04T03:24:00.218Z,29.90
2019-01-04T03:26:29.091Z,26.93
2019-01-04T03:28:57.931Z,36.23
2019-01-04T03:31:26.813Z,44.90
2019-01-04T03:33:55.691Z,47.37
2019-01-04T03:36:24.624Z,46.93
2019-01-04T03:38:53.439Z,61.30
2019-01-04T03:41:22.367Z,62.87
2019-01-04T03:43:51.291Z,57.27
2019-01-04T03:46:20.128Z,50.23
2019-01-04T03:48:48.997Z,44.13
2019-01-04T03:51:18.198Z,45.03
2019-01-04T03:53:47.134Z,57.60
2019-01-04T03:56:16.025Z,65.03
2019-01-04T03:58:45.351Z,67.23
2019-01-04T04:01:14.349Z,57.83
2019-01-04T04:03:43.192Z,72.07
2019-01-04T04:06:12.077Z,58.77
2019-01-04T04:08:40.988Z,58.20
2019-01-04T04:11:09.808Z,61.63
2019-01-04T04:13:38.960Z,56.37
2019-01-04T04:16:07.861Z,47.70
2019-01-04T04:18:36.702Z,59.47
2019-01-04T04:21:05.511Z,43.63
2019-01-04T04:23:34.340Z,39.53
2019-01-04T04:26:03.392Z,35.40
2019-01-04T04:28:32.299Z,38.00
2019-01-04T04:31:01.106Z,35.40
2019-01-04T04:33:30.022Z,33.30
2019-01-04T04:35:58.836Z,31.07
2019-01-04T04:38:27.676Z,37.63
2019-01-04T04:40:56.581Z,36.00
2019-01-04T04:43:25.440Z,44.17
2019-01-04T04:45:54.342Z,42.73
2019-01-04T04:48:23.442Z,41.83
2019-01-04T04:50:52.905Z,42.33
2019-01-04T04:53:21.804Z,40.20
2019-01-04T04:55:50.769Z,39.37
2019-01-04T04:58:19.682Z,46.20
2019-01-04T05:00:48.659Z,34.60
2019-01-04T05:03:17.608Z,35.17
2019-01-04T05:05:46.577Z,32.77
2019-01-04T05:08:15.431Z,44.33
2019-01-04T05:10:44.403Z,48.50
2019-01-04T05:13:13.424Z,44.13
2019-01-04T05:15:42.352Z,57.27
2019-01-04T05:18:11.218Z,56.97
2019-01-04T05:20:40.137Z,49.73
2019-01-04T05:23:08.996Z,44.13
2019-01-04T05:25:38.111Z,43.00
2019-01-04T05:28:07.041Z,42.57
2019-01-04T05:30:35.975Z,44.17
2019-01-04T05:33:04.937Z,39.63
2019-01-04T05:35:33.780Z,39.77
2019-01-04T05:38:02.697Z,48.30
2019-01-04T05:40:31.584Z,42.60
2019-01-04T05:43:00.423Z,34.03
2019-01-04T05:45:29.481Z,39.13
2019-01-04T05:47:58.360Z,43.27
2019-01-04T05:50:27.423Z,38.90
2019-01-04T05:52:56.262Z,29.47
2019-01-04T05:55:25.100Z,28.30
2019-01-04T05:57:53.919Z,41.53
2019-01-04T06:00:22.844Z,38.77
2019-01-04T06:02:51.651Z,37.57
2019-01-04T06:05:20.551Z,32.17
2019-01-04T06:07:49.414Z,29.10
2019-01-04T06:10:18.230Z,35.70
2019-01-04T06:12:47.075Z,37.13
2019-01-04T06:15:16.008Z,35.20
2019-01-04T06:17:44.927Z,30.03
2019-01-04T06:20:13.907Z,33.57
2019-01-04T06:22:42.832Z,34.73
2019-01-04T06:25:11.726Z,37.07
2019-01-04T06:27:40.559Z,37.60
2019-01-04T06:30:09.440Z,33.50
2019-01-04T06:32:38.376Z,41.63
2019-01-04T06:35:08.172Z,36.23
2019-01-04T06:37:37.027Z,33.50
2019-01-04T06:40:07.920Z,34.63
2019-01-04T06:42:37.093Z,36.07
2019-01-04T06:45:06.507Z,36.40
2019-01-04T06:47:36.365Z,36.87
2019-01-04T06:50:06.122Z,35.60
2019-01-04T06:52:34.964Z,42.57
2019-01-04T06:55:46.448Z,32.97
2019-01-04T06:58:15.387Z,37.43
2019-01-04T07:00:44.380Z,24.87
2019-01-04T07:03:13.292Z,32.97
2019-01-04T07:05:42.187Z,36.37
2019-01-04T07:08:11.228Z,41.33
2019-01-04T07:10:40.170Z,41.10
2019-01-04T07:13:09.059Z,43.73
2019-01-04T07:15:38.010Z,51.17
2019-01-04T07:18:06.862Z,57.67
2019-01-04T07:20:35.788Z,51.33
2019-01-04T07:23:04.789Z,50.47
2019-01-04T07:25:33.708Z,63.83
2019-01-04T07:28:02.616Z,79.00
2019-01-04T07:30:31.581Z,81.10
2019-01-04T07:33:00.482Z,81.63
2019-01-04T07:35:29.540Z,102.90
2019-01-04T07:37:58.430Z,101.40
2019-01-04T07:40:27.644Z,104.97
2019-01-04T07:42:56.555Z,84.60
2019-01-04T07:45:25.695Z,103.87
2019-01-04T07:47:54.684Z,108.37
2019-01-04T07:50:23.643Z,106.30
2019-01-04T07:52:52.710Z,106.53
2019-01-04T07:55:21.739Z,103.67
2019-01-04T07:57:50.919Z,90.43
2019-01-04T08:00:20.171Z,103.60
2019-01-04T08:02:50.763Z,105.57
2019-01-04T08:05:24.075Z,122.30
2019-01-04T08:07:53.880Z,124.27
2019-01-04T08:10:23.170Z,129.03
2019-01-04T08:12:52.195Z,133.70
2019-01-04T08:15:21.388Z,133.70
2019-01-04T08:17:50.287Z,135.90
2019-01-04T08:20:19.259Z,137.33
2019-01-04T08:22:48.081Z,124.67
2019-01-04T08:25:16.906Z,112.07
2019-01-04T08:27:45.732Z,112.67
2019-01-04T08:30:16.329Z,142.63
2019-01-04T08:32:45.234Z,122.33
2019-01-04T08:35:14.206Z,135.47
2019-01-04T08:37:43.191Z,116.97
2019-01-04T08:40:13.279Z,98.90
2019-01-04T08:42:42.329Z,81.13
2019-01-04T08:45:12.700Z,80.50
2019-01-04T08:47:42.000Z,102.93
2019-01-04T08:50:12.634Z,89.27
2019-01-04T08:52:41.530Z,104.43
2019-01-04T08:55:16.483Z,107.60
2019-01-04T08:57:45.382Z,90.30
2019-01-04T09:00:14.557Z,93.30
2019-01-04T09:02:43.362Z,109.00
2019-01-04T09:05:12.222Z,98.97
2019-01-04T09:07:41.391Z,93.37
2019-01-04T09:10:10.375Z,102.87
2019-01-04T09:12:39.186Z,185.47
2019-01-04T09:15:10.043Z,105.10
2019-01-04T09:17:38.937Z,139.17
2019-01-04T09:20:10.088Z,129.23
2019-01-04T09:22:39.262Z,127.00
2019-01-04T09:25:09.703Z,115.40
2019-01-04T09:27:38.910Z,141.97
2019-01-04T09:30:11.428Z,144.83
2019-01-04T09:32:40.303Z,108.10
2019-01-04T09:35:09.518Z,106.00
2019-01-04T09:37:38.685Z,92.20
2019-01-04T09:40:10.114Z,95.83
2019-01-04T09:42:39.212Z,85.93
2019-01-04T09:45:09.427Z,76.20
2019-01-04T09:47:38.327Z,94.33
2019-01-04T09:50:08.476Z,94.13
2019-01-04T09:52:37.895Z,89.70
2019-01-04T09:55:07.425Z,77.23
2019-01-04T09:57:36.371Z,91.83
2019-01-04T10:00:07.888Z,86.87
2019-01-04T10:02:36.981Z,93.93
2019-01-04T10:05:06.115Z,74.47
2019-01-04T10:07:35.036Z,76.20
2019-01-04T10:10:04.124Z,80.90
2019-01-04T10:12:32.946Z,89.50
2019-01-04T10:15:01.756Z,80.83
2019-01-04T10:17:30.579Z,67.03
2019-01-04T10:19:59.481Z,91.47
2019-01-04T10:22:28.306Z,126.23
2019-01-04T10:24:57.192Z,88.17
2019-01-04T10:27:26.096Z,70.17
2019-01-04T10:29:54.917Z,111.53
2019-01-04T10:32:23.774Z,85.93
2019-01-04T10:34:52.671Z,85.70
2019-01-04T10:37:21.587Z,94.93
2019-01-04T10:39:50.458Z,67.90
2019-01-04T10:42:19.348Z,92.33
2019-01-04T10:44:48.239Z,80.37
2019-01-04T10:47:17.182Z,80.93
2019-01-04T10:49:46.102Z,87.00
2019-01-04T10:52:15.551Z,84.73
2019-01-04T10:54:44.434Z,95.80
2019-01-04T10:57:13.641Z,81.70
2019-01-04T10:59:42.594Z,70.00
2019-01-04T11:02:11.475Z,163.57
2019-01-04T11:04:40.320Z,89.07
2019-01-04T11:07:09.256Z,61.10
2019-01-04T11:09:38.151Z,50.17
2019-01-04T11:12:07.042Z,61.33
2019-01-04T11:14:35.871Z,53.50
2019-01-04T11:17:04.848Z,47.10
2019-01-04T11:19:33.752Z,60.23
2019-01-04T11:22:38.734Z,58.80
2019-01-04T11:25:49.538Z,49.83
2019-01-04T11:28:56.869Z,52.17
2019-01-04T11:32:02.750Z,39.70
2019-01-04T11:35:29.812Z,40.83
2019-01-04T11:38:11.928Z,39.47
2019-01-04T11:41:25.054Z,36.03
2019-01-04T11:44:43.002Z,35.63
2019-01-04T11:47:46.059Z,36.97
2019-01-04T11:51:08.466Z,46.30
2019-01-04T11:53:37.276Z,38.50
2019-01-04T11:56:06.363Z,34.33
2019-01-04T11:58:35.184Z,32.80
2019-01-04T12:01:04.490Z,36.77
2019-01-04T12:03:33.643Z,27.63
2019-01-04T12:06:02.675Z,27.90
2019-01-04T12:08:31.822Z,28.73
2019-01-04T12:11:00.948Z,31.07
2019-01-04T12:13:30.024Z,25.73
2019-01-04T12:15:58.967Z,30.10
2019-01-04T12:18:28.132Z,32.03
2019-01-04T12:20:57.029Z,25.07
2019-01-04T12:23:26.193Z,35.27
2019-01-04T12:25:55.091Z,33.23
2019-01-04T12:28:23.936Z,41.83
2019-01-04T12:30:52.794Z,38.43
2019-01-04T12:33:21.624Z,33.40
2019-01-04T12:35:50.743Z,27.40
2019-01-04T12:38:19.656Z,30.87
2019-01-04T12:40:48.492Z,28.80
2019-01-04T12:43:17.409Z,30.57
2019-01-04T12:45:47.468Z,36.77
2019-01-04T12:48:16.361Z,31.93
2019-01-04T12:50:45.243Z,34.33
2019-01-04T12:53:14.176Z,28.17
2019-01-04T12:55:43.362Z,35.50
2019-01-04T12:58:12.263Z,38.83
2019-01-04T13:00:41.155Z,37.33
2019-01-04T13:03:10.079Z,36.97
2019-01-04T13:05:39.305Z,32.27
2019-01-04T13:08:08.216Z,27.13
2019-01-04T13:10:37.183Z,31.23
2019-01-04T13:13:06.026Z,34.93
2019-01-04T13:15:34.962Z,38.23
2019-01-04T13:18:04.029Z,42.47
2019-01-04T13:20:32.985Z,31.20
2019-01-04T13:23:02.525Z,35.10
2019-01-04T13:25:31.545Z,47.73
2019-01-04T13:28:00.622Z,32.00
2019-01-04T13:30:29.683Z,40.93
2019-01-04T13:32:58.713Z,41.87
2019-01-04T13:35:27.638Z,33.87
2019-01-04T13:37:56.603Z,26.43
2019-01-04T13:40:25.647Z,30.73
2019-01-04T13:42:54.606Z,27.83
2019-01-04T13:45:23.514Z,25.80
2019-01-04T13:47:52.364Z,28.23
2019-01-04T13:50:21.242Z,21.73
2019-01-04T13:52:50.121Z,25.20
2019-01-04T13:55:19.985Z,28.97
2019-01-04T13:57:49.990Z,22.33
2019-01-04T14:00:18.939Z,24.30
2019-01-04T14:02:47.862Z,23.63
2019-01-04T14:05:16.649Z,24.40
2019-01-04T14:07:45.422Z,21.27
2019-01-04T14:10:14.192Z,20.63
2019-01-04T14:12:43.038Z,19.63
2019-01-04T14:15:11.969Z,19.77
2019-01-04T14:17:40.758Z,16.50
2019-01-04T14:20:09.799Z,19.17
2019-01-04T14:22:38.714Z,16.57
2019-01-04T14:25:08.384Z,13.90
2019-01-04T14:27:37.218Z,14.47
2019-01-04T14:30:07.976Z,16.40
2019-01-04T14:32:36.829Z,12.63
2019-01-04T14:35:06.037Z,13.00
2019-01-04T14:37:34.946Z,18.60
2019-01-04T14:40:04.545Z,16.87
2019-01-04T14:42:33.409Z,13.33
2019-01-04T14:45:02.434Z,12.00
2019-01-04T14:47:31.294Z,13.60
2019-01-04T14:50:00.514Z,14.73
2019-01-04T14:52:29.326Z,12.53
2019-01-04T14:54:58.131Z,15.00
2019-01-04T14:57:27.537Z,13.57
2019-01-04T14:59:56.396Z,15.97
2019-01-04T15:02:25.213Z,16.23
2019-01-04T15:04:53.995Z,14.37
2019-01-04T15:07:23.034Z,13.43
2019-01-04T15:09:51.879Z,165.53
2019-01-04T15:12:21.000Z,31.17
2019-01-04T15:14:49.766Z,13.87
2019-01-04T15:17:18.559Z,20.40
2019-01-04T15:19:47.322Z,15.77
2019-01-04T15:22:16.316Z,15.83
2019-01-04T15:24:45.174Z,14.60
2019-01-04T15:27:14.473Z,15.07
2019-01-04T15:29:43.242Z,13.17
2019-01-04T15:32:12.102Z,14.43
2019-01-04T15:34:41.099Z,12.50
2019-01-04T15:37:09.881Z,14.43
2019-01-04T15:39:38.673Z,15.00
2019-01-04T15:42:07.619Z,13.60
2019-01-04T15:44:36.499Z,12.30
2019-01-04T15:47:05.439Z,13.33
2019-01-04T15:49:34.546Z,14.37
2019-01-04T15:52:03.418Z,15.53
2019-01-04T15:54:32.306Z,15.30
2019-01-04T15:57:01.267Z,62.60
2019-01-04T15:59:30.194Z,28.60
2019-01-04T16:01:59.338Z,38.27
2019-01-04T16:04:28.195Z,24.30
2019-01-04T16:06:57.099Z,18.73
2019-01-04T16:09:26.071Z,24.87
2019-01-04T16:11:55.015Z,24.27
2019-01-04T16:14:23.979Z,23.50
2019-01-04T16:16:52.833Z,23.83
2019-01-04T16:19:22.156Z,26.07
2019-01-04T16:21:51.331Z,25.03
2019-01-04T16:24:20.188Z,25.67
2019-01-04T16:26:49.339Z,27.63
2019-01-04T16:29:18.549Z,27.43
2019-01-04T16:31:47.471Z,24.63
2019-01-04T16:34:16.414Z,22.87
2019-01-04T16:36:45.371Z,21.57
2019-01-04T16:39:14.306Z,21.30
2019-01-04T16:41:43.297Z,23.83
2019-01-04T16:44:12.351Z,45.77
2019-01-04T16:46:41.315Z,81.50
2019-01-04T16:49:10.263Z,24.80
2019-01-04T16:51:39.198Z,22.40
2019-01-04T16:54:08.244Z,20.47
2019-01-04T16:56:37.186Z,22.20
2019-01-04T16:59:06.128Z,24.33
2019-01-04T17:01:35.030Z,25.70
2019-01-04T17:04:04.059Z,27.33
2019-01-04T17:06:32.981Z,22.87
2019-01-04T17:09:01.931Z,23.07
2019-01-04T17:11:31.182Z,22.33
2019-01-04T17:14:00.191Z,25.00
2019-01-04T17:16:29.055Z,23.50
2019-01-04T17:18:57.907Z,23.57
2019-01-04T17:21:26.831Z,25.50
2019-01-04T17:23:55.689Z,31.03
2019-01-04T17:26:24.606Z,25.53
2019-01-04T17:28:53.838Z,26.47
2019-01-04T17:31:22.703Z,27.50
2019-01-04T17:33:51.567Z,27.40
2019-01-04T17:36:20.438Z,28.03
2019-01-04T17:38:49.342Z,26.87
2019-01-04T17:41:18.739Z,27.60
2019-01-04T17:43:47.754Z,22.40
2019-01-04T17:46:16.923Z,28.70
2019-01-04T17:48:45.863Z,24.13
2019-01-04T17:51:14.801Z,24.60
2019-01-04T17:53:44.110Z,22.90
2019-01-04T17:56:13.035Z,26.40
2019-01-04T17:58:41.895Z,45.50
2019-01-04T18:01:11.250Z,31.23
2019-01-04T18:03:40.105Z,47.60
2019-01-04T18:06:09.122Z,99.67
2019-01-04T18:08:37.996Z,49.33
2019-01-04T18:11:07.235Z,34.80
2019-01-04T18:13:36.073Z,29.03
2019-01-04T18:16:05.014Z,33.33
2019-01-04T18:18:33.912Z,33.87
2019-01-04T18:21:02.808Z,34.73
2019-01-04T18:23:31.650Z,44.00
2019-01-04T18:26:00.520Z,33.47
2019-01-04T18:28:29.491Z,41.43
2019-01-04T18:30:58.509Z,39.50
2019-01-04T18:33:27.382Z,45.37
2019-01-04T18:35:56.569Z,41.20
2019-01-04T18:38:25.763Z,32.23
2019-01-04T18:40:54.614Z,38.00
2019-01-04T18:43:24.001Z,41.83
2019-01-04T18:45:52.869Z,37.63
2019-01-04T18:48:21.741Z,43.60
2019-01-04T18:50:52.063Z,37.70
2019-01-04T18:53:20.906Z,48.73
2019-01-04T18:55:49.910Z,55.20
2019-01-04T18:58:18.920Z,33.83
2019-01-04T19:00:48.135Z,39.00
2019-01-04T19:03:16.974Z,38.80
2019-01-04T19:05:45.835Z,45.57
2019-01-04T19:08:14.990Z,33.73
2019-01-04T19:10:43.855Z,36.20
2019-01-04T19:13:12.708Z,29.33
2019-01-04T19:15:41.735Z,48.73
2019-01-04T19:18:10.783Z,35.63
2019-01-04T19:20:39.687Z,40.80
2019-01-04T19:23:08.533Z,31.43
2019-01-04T19:25:37.406Z,47.17
2019-01-04T19:28:06.257Z,36.30
2019-01-04T19:30:35.530Z,47.57
2019-01-04T19:33:04.821Z,47.13
2019-01-04T19:35:33.747Z,44.23
2019-01-04T19:38:02.671Z,46.43
2019-01-04T19:40:31.609Z,39.60
2019-01-04T19:43:00.486Z,37.13
2019-01-04T19:45:29.514Z,40.67
2019-01-04T19:47:58.359Z,34.67
2019-01-04T19:50:27.578Z,44.27
2019-01-04T19:52:56.708Z,36.17
2019-01-04T19:55:25.870Z,38.07
2019-01-04T19:57:54.993Z,36.03
2019-01-04T20:00:23.833Z,36.40
2019-01-04T20:02:52.722Z,32.57
2019-01-04T20:05:31.156Z,33.47
2019-01-04T20:08:30.982Z,29.93
2019-01-04T20:12:04.317Z,28.20
2019-01-04T20:15:43.513Z,33.80
2019-01-04T20:18:34.589Z,28.03
2019-01-04T20:21:28.596Z,31.37
2019-01-04T20:24:08.653Z,28.33
2019-01-04T20:26:55.469Z,32.30
2019-01-04T20:30:01.793Z,29.07
2019-01-04T20:32:48.401Z,30.93
2019-01-04T20:35:35.312Z,32.13
2019-01-04T20:38:18.402Z,24.77
2019-01-04T20:41:11.038Z,31.00
2019-01-04T20:43:58.645Z,28.63
2019-01-04T20:46:58.894Z,28.90
2019-01-04T20:49:52.572Z,36.30
2019-01-04T20:52:40.443Z,26.03
2019-01-04T20:55:21.797Z,30.07
2019-01-04T20:58:06.938Z,29.60
2019-01-04T21:01:04.222Z,29.30
2019-01-04T21:04:10.529Z,33.10
2019-01-04T21:06:57.368Z,30.53
2019-01-04T21:09:41.889Z,32.07
2019-01-04T21:12:34.478Z,34.23
2019-01-04T21:15:36.475Z,24.37
2019-01-04T21:18:23.080Z,26.00
2019-01-04T21:21:10.959Z,26.80
2019-01-04T21:24:03.734Z,25.90
2019-01-04T21:26:54.349Z,25.13
2019-01-04T21:29:34.627Z,26.10
2019-01-04T21:32:31.501Z,96.53
2019-01-04T21:35:31.385Z,50.23
2019-01-04T21:38:28.295Z,31.50
2019-01-04T21:41:17.692Z,22.10
2019-01-04T21:44:00.996Z,27.50
2019-01-04T21:46:50.766Z,27.33
2019-01-04T21:49:44.144Z,27.20
2019-01-04T21:52:32.011Z,26.83
2019-01-04T21:55:28.217Z,29.20
2019-01-04T21:58:34.269Z,31.30
2019-01-04T22:01:37.640Z,27.13
2019-01-04T22:04:28.309Z,30.83
2019-01-04T22:07:15.001Z,28.53
2019-01-04T22:10:07.321Z,31.30
2019-01-04T22:13:01.323Z,32.10
2019-01-04T22:15:54.266Z,31.40
2019-01-04T22:18:48.369Z,37.93
2019-01-04T22:21:35.020Z,32.03
2019-01-04T22:24:21.882Z,33.80
2019-01-04T22:27:03.342Z,32.20
2019-01-04T22:29:58.044Z,39.93
2019-01-04T22:32:48.970Z,41.47
2019-01-04T22:35:36.834Z,46.57
2019-01-04T22:38:16.025Z,50.00
2019-01-04T22:41:02.829Z,43.73
2019-01-04T22:43:49.635Z,48.40
2019-01-04T22:46:49.880Z,45.00
2019-01-04T22:49:33.214Z,41.73
2019-01-04T22:52:20.137Z,64.93
2019-01-04T22:55:08.010Z,51.73
2019-01-04T22:57:56.677Z,64.90
2019-01-04T23:00:39.408Z,50.03
2019-01-04T23:03:36.858Z,60.90
2019-01-04T23:06:33.858Z,49.10
2019-01-04T23:09:30.896Z,49.07
2019-01-04T23:12:24.913Z,39.57
2019-01-04T23:15:11.986Z,44.47
2019-01-04T23:17:51.996Z,37.43
2019-01-04T23:20:35.525Z,44.30
2019-01-04T23:23:22.235Z,38.33
2019-01-04T23:26:09.109Z,37.80
2019-01-04T23:28:52.287Z,39.70
2019-01-04T23:31:47.906Z,40.40
2019-01-04T23:34:34.678Z,48.83
2019-01-04T23:37:41.165Z,38.83
2019-01-04T23:40:27.876Z,29.73
2019-01-04T23:43:12.310Z,25.93
2019-01-04T23:46:00.343Z,31.50
2019-01-04T23:49:00.442Z,41.87
2019-01-04T23:51:47.626Z,30.50
2019-01-04T23:54:34.333Z,30.33
2019-01-04T23:57:20.832Z,29.10
